sensor_id;sensor_type;location;lat;lon;timestamp;temperature;humidity
43963;DHT22;29622;45.534;9.242;2022-10-17T00:02:02;18.20;60.30
43963;DHT22;29622;45.534;9.242;2022-10-17T00:59:00;17.70;60.90
43963;DHT22;29622;45.534;9.242;2022-10-17T01:11:20;17.60;61.30
43963;DHT22;29622;45.534;9.242;2022-10-17T02:01:36;17.50;62.30
43963;DHT22;29622;45.534;9.242;2022-10-17T02:31:25;17.40;62.40
43963;DHT22;29622;45.534;9.242;2022-10-17T02:55:50;17.30;63.30
43963;DHT22;29622;45.534;9.242;2022-10-17T03:20:10;17.30;64.00
43963;DHT22;29622;45.534;9.242;2022-10-17T03:26:06;17.30;63.80
43963;DHT22;29622;45.534;9.242;2022-10-17T03:44:41;17.30;64.20
43963;DHT22;29622;45.534;9.242;2022-10-17T03:50:29;17.30;64.30
43963;DHT22;29622;45.534;9.242;2022-10-17T04:14:42;17.30;64.50
43963;DHT22;29622;45.534;9.242;2022-10-17T04:27:25;17.20;64.60
43963;DHT22;29622;45.534;9.242;2022-10-17T05:04:05;17.10;64.80
43963;DHT22;29622;45.534;9.242;2022-10-17T05:09:45;17.10;64.60
43963;DHT22;29622;45.534;9.242;2022-10-17T05:27:49;17.10;64.80
43963;DHT22;29622;45.534;9.242;2022-10-17T05:33:40;17.10;64.60
43963;DHT22;29622;45.534;9.242;2022-10-17T05:39:18;17.00;64.90
43963;DHT22;29622;45.534;9.242;2022-10-17T05:44:28;17.00;64.70
43963;DHT22;29622;45.534;9.242;2022-10-17T05:49:36;17.00;64.80
43963;DHT22;29622;45.534;9.242;2022-10-17T05:55:00;17.00;64.90
43963;DHT22;29622;45.534;9.242;2022-10-17T06:00:17;17.00;64.90
43963;DHT22;29622;45.534;9.242;2022-10-17T06:05:31;17.10;64.80
43963;DHT22;29622;45.534;9.242;2022-10-17T06:25:19;17.10;64.80
43963;DHT22;29622;45.534;9.242;2022-10-17T06:30:53;17.20;64.50
43963;DHT22;29622;45.534;9.242;2022-10-17T06:36:12;17.10;64.50
43963;DHT22;29622;45.534;9.242;2022-10-17T06:41:28;17.20;65.90
43963;DHT22;29622;45.534;9.242;2022-10-17T06:46:50;17.80;64.90
43963;DHT22;29622;45.534;9.242;2022-10-17T07:04:26;17.70;64.00
43963;DHT22;29622;45.534;9.242;2022-10-17T07:53:35;18.30;62.40
43963;DHT22;29622;45.534;9.242;2022-10-17T07:58:36;18.50;62.10
43963;DHT22;29622;45.534;9.242;2022-10-17T08:03:40;18.80;62.10
43963;DHT22;29622;45.534;9.242;2022-10-17T08:08:51;19.10;61.60
43963;DHT22;29622;45.534;9.242;2022-10-17T08:14:01;19.30;61.10
43963;DHT22;29622;45.534;9.242;2022-10-17T08:19:48;19.40;60.70
43963;DHT22;29622;45.534;9.242;2022-10-17T08:24:32;19.50;60.30
43963;DHT22;29622;45.534;9.242;2022-10-17T08:29:44;19.50;60.20
43963;DHT22;29622;45.534;9.242;2022-10-17T08:34:55;19.50;60.10
43963;DHT22;29622;45.534;9.242;2022-10-17T08:40:23;19.60;60.00
43963;DHT22;29622;45.534;9.242;2022-10-17T08:51:10;19.80;59.70
43963;DHT22;29622;45.534;9.242;2022-10-17T08:56:29;20.00;59.60
43963;DHT22;29622;45.534;9.242;2022-10-17T09:01:43;20.30;59.30
43963;DHT22;29622;45.534;9.242;2022-10-17T09:06:57;20.60;58.70
43963;DHT22;29622;45.534;9.242;2022-10-17T09:17:31;20.60;58.70
43963;DHT22;29622;45.534;9.242;2022-10-17T09:28:20;21.00;58.30
43963;DHT22;29622;45.534;9.242;2022-10-17T09:33:30;21.30;57.80
43963;DHT22;29622;45.534;9.242;2022-10-17T09:38:40;21.30;57.80
43963;DHT22;29622;45.534;9.242;2022-10-17T09:43:42;21.30;57.90
43963;DHT22;29622;45.534;9.242;2022-10-17T09:48:51;21.40;57.70
43963;DHT22;29622;45.534;9.242;2022-10-17T10:00:02;21.90;57.10
43963;DHT22;29622;45.534;9.242;2022-10-17T10:05:17;22.00;56.70
43963;DHT22;29622;45.534;9.242;2022-10-17T10:10:24;21.70;56.90
43963;DHT22;29622;45.534;9.242;2022-10-17T10:15:37;21.60;57.30
43963;DHT22;29622;45.534;9.242;2022-10-17T10:20:40;21.80;57.10
43963;DHT22;29622;45.534;9.242;2022-10-17T10:25:56;21.90;56.90
43963;DHT22;29622;45.534;9.242;2022-10-17T10:31:08;22.00;56.70
43963;DHT22;29622;45.534;9.242;2022-10-17T10:36:09;22.20;56.50
43963;DHT22;29622;45.534;9.242;2022-10-17T10:41:10;22.50;56.20
43963;DHT22;29622;45.534;9.242;2022-10-17T10:46:27;22.30;55.80
43963;DHT22;29622;45.534;9.242;2022-10-17T10:51:41;22.30;56.00
43963;DHT22;29622;45.534;9.242;2022-10-17T10:56:59;22.50;56.00
43963;DHT22;29622;45.534;9.242;2022-10-17T11:07:20;22.60;55.50
43963;DHT22;29622;45.534;9.242;2022-10-17T11:12:42;22.80;55.30
43963;DHT22;29622;45.534;9.242;2022-10-17T11:18:07;23.00;55.30
43963;DHT22;29622;45.534;9.242;2022-10-17T11:29:02;23.30;54.20
43963;DHT22;29622;45.534;9.242;2022-10-17T11:34:26;23.40;54.10
43963;DHT22;29622;45.534;9.242;2022-10-17T11:45:05;23.20;54.00
43963;DHT22;29622;45.534;9.242;2022-10-17T11:50:43;23.20;54.00
43963;DHT22;29622;45.534;9.242;2022-10-17T11:55:58;23.20;53.60
43963;DHT22;29622;45.534;9.242;2022-10-17T12:01:56;23.20;54.30
43963;DHT22;29622;45.534;9.242;2022-10-17T12:07:16;23.40;53.70
43963;DHT22;29622;45.534;9.242;2022-10-17T12:12:48;23.60;53.30
43963;DHT22;29622;45.534;9.242;2022-10-17T12:18:25;23.90;53.00
43963;DHT22;29622;45.534;9.242;2022-10-17T12:23:53;24.00;52.20
43963;DHT22;29622;45.534;9.242;2022-10-17T12:29:27;24.00;52.40
43963;DHT22;29622;45.534;9.242;2022-10-17T12:34:29;24.20;52.30
43963;DHT22;29622;45.534;9.242;2022-10-17T12:39:40;24.30;52.30
43963;DHT22;29622;45.534;9.242;2022-10-17T12:44:42;24.50;51.90
43963;DHT22;29622;45.534;9.242;2022-10-17T12:49:49;24.50;51.70
43963;DHT22;29622;45.534;9.242;2022-10-17T13:06:34;24.50;50.70
43963;DHT22;29622;45.534;9.242;2022-10-17T13:11:23;24.60;50.50
43963;DHT22;29622;45.534;9.242;2022-10-17T13:17:12;24.80;50.50
43963;DHT22;29622;45.534;9.242;2022-10-17T13:22:35;24.90;50.20
43963;DHT22;29622;45.534;9.242;2022-10-17T13:28:45;25.00;50.10
43963;DHT22;29622;45.534;9.242;2022-10-17T13:39:41;25.00;49.30
43963;DHT22;29622;45.534;9.242;2022-10-17T13:44:58;24.90;49.60
43963;DHT22;29622;45.534;9.242;2022-10-17T13:50:19;24.90;49.90
43963;DHT22;29622;45.534;9.242;2022-10-17T13:55:20;25.10;49.80
43963;DHT22;29622;45.534;9.242;2022-10-17T14:00:22;25.20;49.60
43963;DHT22;29622;45.534;9.242;2022-10-17T14:05:26;25.20;49.50
43963;DHT22;29622;45.534;9.242;2022-10-17T14:10:35;25.20;49.20
43963;DHT22;29622;45.534;9.242;2022-10-17T14:15:38;25.20;48.80
43963;DHT22;29622;45.534;9.242;2022-10-17T14:20:48;25.30;49.00
43963;DHT22;29622;45.534;9.242;2022-10-17T14:26:07;25.40;48.90
43963;DHT22;29622;45.534;9.242;2022-10-17T14:31:21;25.40;48.40
43963;DHT22;29622;45.534;9.242;2022-10-17T14:36:37;25.30;48.50
43963;DHT22;29622;45.534;9.242;2022-10-17T14:41:42;25.40;47.90
43963;DHT22;29622;45.534;9.242;2022-10-17T14:46:45;25.50;48.00
43963;DHT22;29622;45.534;9.242;2022-10-17T15:02:26;25.40;48.00
43963;DHT22;29622;45.534;9.242;2022-10-17T15:07:31;25.40;47.80
43963;DHT22;29622;45.534;9.242;2022-10-17T15:12:35;25.50;47.80
43963;DHT22;29622;45.534;9.242;2022-10-17T15:17:45;25.40;47.80
43963;DHT22;29622;45.534;9.242;2022-10-17T15:23:13;25.00;47.70
43963;DHT22;29622;45.534;9.242;2022-10-17T15:28:17;24.70;48.20
43963;DHT22;29622;45.534;9.242;2022-10-17T15:33:17;24.70;48.30
43963;DHT22;29622;45.534;9.242;2022-10-17T15:38:18;24.50;48.40
43963;DHT22;29622;45.534;9.242;2022-10-17T15:43:20;24.50;48.50
43963;DHT22;29622;45.534;9.242;2022-10-17T15:48:25;24.40;48.40
43963;DHT22;29622;45.534;9.242;2022-10-17T15:53:27;24.30;48.50
43963;DHT22;29622;45.534;9.242;2022-10-17T15:58:37;24.30;49.00
43963;DHT22;29622;45.534;9.242;2022-10-17T16:03:39;24.30;48.90
43963;DHT22;29622;45.534;9.242;2022-10-17T16:08:40;24.30;48.90
43963;DHT22;29622;45.534;9.242;2022-10-17T16:13:41;24.30;49.10
43963;DHT22;29622;45.534;9.242;2022-10-17T16:18:49;24.20;49.10
43963;DHT22;29622;45.534;9.242;2022-10-17T16:23:59;24.00;49.50
43963;DHT22;29622;45.534;9.242;2022-10-17T16:29:03;24.10;49.80
43963;DHT22;29622;45.534;9.242;2022-10-17T16:34:20;24.00;49.60
43963;DHT22;29622;45.534;9.242;2022-10-17T16:39:31;23.90;49.60
43963;DHT22;29622;45.534;9.242;2022-10-17T16:44:33;23.70;49.90
43963;DHT22;29622;45.534;9.242;2022-10-17T16:49:37;23.50;49.90
43963;DHT22;29622;45.534;9.242;2022-10-17T16:54:38;23.40;50.00
43963;DHT22;29622;45.534;9.242;2022-10-17T16:59:40;23.20;50.20
43963;DHT22;29622;45.534;9.242;2022-10-17T17:04:42;23.10;50.20
43963;DHT22;29622;45.534;9.242;2022-10-17T17:09:43;23.00;50.40
43963;DHT22;29622;45.534;9.242;2022-10-17T17:14:44;22.90;50.50
43963;DHT22;29622;45.534;9.242;2022-10-17T17:19:48;22.80;50.70
43963;DHT22;29622;45.534;9.242;2022-10-17T17:24:57;22.80;50.70
43963;DHT22;29622;45.534;9.242;2022-10-17T17:30:01;22.70;50.70
43963;DHT22;29622;45.534;9.242;2022-10-17T17:35:02;22.70;50.80
43963;DHT22;29622;45.534;9.242;2022-10-17T17:40:03;22.70;50.90
43963;DHT22;29622;45.534;9.242;2022-10-17T17:45:05;22.60;51.10
43963;DHT22;29622;45.534;9.242;2022-10-17T17:50:07;22.50;51.10
43963;DHT22;29622;45.534;9.242;2022-10-17T17:55:11;22.30;51.30
43963;DHT22;29622;45.534;9.242;2022-10-17T18:00:15;22.20;51.50
43963;DHT22;29622;45.534;9.242;2022-10-17T18:05:16;22.10;51.80
43963;DHT22;29622;45.534;9.242;2022-10-17T18:10:22;22.00;51.90
43963;DHT22;29622;45.534;9.242;2022-10-17T18:15:23;22.00;52.00
43963;DHT22;29622;45.534;9.242;2022-10-17T18:20:24;22.00;52.10
43963;DHT22;29622;45.534;9.242;2022-10-17T18:25:25;21.90;52.40
43963;DHT22;29622;45.534;9.242;2022-10-17T18:30:25;21.90;52.50
43963;DHT22;29622;45.534;9.242;2022-10-17T18:35:26;21.80;52.60
43963;DHT22;29622;45.534;9.242;2022-10-17T18:40:36;21.70;52.70
43963;DHT22;29622;45.534;9.242;2022-10-17T18:46:08;21.60;52.90
43963;DHT22;29622;45.534;9.242;2022-10-17T18:51:13;21.60;53.00
43963;DHT22;29622;45.534;9.242;2022-10-17T18:56:16;21.50;53.10
43963;DHT22;29622;45.534;9.242;2022-10-17T19:01:29;21.40;53.30
43963;DHT22;29622;45.534;9.242;2022-10-17T19:06:36;21.40;53.60
43963;DHT22;29622;45.534;9.242;2022-10-17T19:11:53;21.30;53.50
43963;DHT22;29622;45.534;9.242;2022-10-17T19:16:57;21.30;53.60
43963;DHT22;29622;45.534;9.242;2022-10-17T19:22:02;21.20;53.80
43963;DHT22;29622;45.534;9.242;2022-10-17T19:27:54;21.20;54.10
43963;DHT22;29622;45.534;9.242;2022-10-17T19:39:32;21.10;54.50
43963;DHT22;29622;45.534;9.242;2022-10-17T19:44:36;21.00;54.70
43963;DHT22;29622;45.534;9.242;2022-10-17T19:49:45;21.00;55.20
43963;DHT22;29622;45.534;9.242;2022-10-17T19:54:47;20.90;54.80
43963;DHT22;29622;45.534;9.242;2022-10-17T19:59:51;20.80;55.00
43963;DHT22;29622;45.534;9.242;2022-10-17T20:04:54;20.70;55.20
43963;DHT22;29622;45.534;9.242;2022-10-17T20:09:55;20.70;55.40
43963;DHT22;29622;45.534;9.242;2022-10-17T20:14:56;20.60;55.60
43963;DHT22;29622;45.534;9.242;2022-10-17T20:19:57;20.50;55.80
43963;DHT22;29622;45.534;9.242;2022-10-17T20:24:58;20.40;56.00
43963;DHT22;29622;45.534;9.242;2022-10-17T20:29:59;20.30;56.20
43963;DHT22;29622;45.534;9.242;2022-10-17T20:35:04;20.20;56.30
43963;DHT22;29622;45.534;9.242;2022-10-17T20:40:06;20.20;56.50
43963;DHT22;29622;45.534;9.242;2022-10-17T20:45:10;20.10;56.60
43963;DHT22;29622;45.534;9.242;2022-10-17T20:50:11;20.10;56.80
43963;DHT22;29622;45.534;9.242;2022-10-17T20:55:17;20.10;56.90
43963;DHT22;29622;45.534;9.242;2022-10-17T21:00:25;20.10;57.00
43963;DHT22;29622;45.534;9.242;2022-10-17T21:05:26;20.00;57.00
43963;DHT22;29622;45.534;9.242;2022-10-17T21:10:29;20.00;57.20
43963;DHT22;29622;45.534;9.242;2022-10-17T21:15:36;19.90;57.40
43963;DHT22;29622;45.534;9.242;2022-10-17T21:20:37;19.70;57.60
43963;DHT22;29622;45.534;9.242;2022-10-17T21:25:41;19.60;57.80
43963;DHT22;29622;45.534;9.242;2022-10-17T21:30:41;19.50;57.90
43963;DHT22;29622;45.534;9.242;2022-10-17T21:35:42;19.50;58.10
43963;DHT22;29622;45.534;9.242;2022-10-17T21:40:45;19.40;58.70
43963;DHT22;29622;45.534;9.242;2022-10-17T21:45:46;19.30;58.40
43963;DHT22;29622;45.534;9.242;2022-10-17T21:50:47;19.30;58.40
43963;DHT22;29622;45.534;9.242;2022-10-17T21:55:48;19.20;58.60
43963;DHT22;29622;45.534;9.242;2022-10-17T22:00:49;19.20;58.70
43963;DHT22;29622;45.534;9.242;2022-10-17T22:05:53;19.10;58.80
43963;DHT22;29622;45.534;9.242;2022-10-17T22:10:55;19.10;58.90
43963;DHT22;29622;45.534;9.242;2022-10-17T22:16:03;19.00;58.90
43963;DHT22;29622;45.534;9.242;2022-10-17T22:21:06;19.00;59.20
43963;DHT22;29622;45.534;9.242;2022-10-17T22:26:16;18.90;59.20
43963;DHT22;29622;45.534;9.242;2022-10-17T22:31:24;18.80;59.00
43963;DHT22;29622;45.534;9.242;2022-10-17T22:36:26;18.80;59.30
43963;DHT22;29622;45.534;9.242;2022-10-17T22:41:27;18.80;59.40
43963;DHT22;29622;45.534;9.242;2022-10-17T22:46:28;18.70;59.50
43963;DHT22;29622;45.534;9.242;2022-10-17T22:51:40;18.60;59.70
43963;DHT22;29622;45.534;9.242;2022-10-17T23:20:09;19.10;60.00
43963;DHT22;29622;45.534;9.242;2022-10-17T23:25:14;19.00;59.70
43963;DHT22;29622;45.534;9.242;2022-10-17T23:30:21;19.00;59.80
43963;DHT22;29622;45.534;9.242;2022-10-17T23:35:41;18.90;59.80
43963;DHT22;29622;45.534;9.242;2022-10-17T23:40:47;18.80;60.00
43963;DHT22;29622;45.534;9.242;2022-10-17T23:45:55;18.70;60.00
43963;DHT22;29622;45.534;9.242;2022-10-17T23:51:02;18.60;60.10
43963;DHT22;29622;45.534;9.242;2022-10-17T23:56:23;18.50;60.30
